Weather at Korea Telecommunications (KT) Heliport

Public forecast

Using degrees Celsius for public forecast. Weather courtesy of forecast.io.

Closest aviation weather report (METAR) to Korea Telecommunications (KT) Heliport

Closest report is Gimhae International Airport, 6.6 nm (12.2 km) WNW. Retrieved 2020/09/19 09:00 UTC (30 minutes ago):

RKPK 190900Z 22007KT CAVOK 24/13 Q1014

Closest aviation forecast (TAF) to Korea Telecommunications (KT) Heliport

Closest forecast is Gimhae International Airport, 6.6 nm (12.2 km) WNW. Retrieved 2020/09/19 06:00 UTC (3 hours ago):

TAF RKPK 190500Z 1906/2012 21006KT 9999 SCT030 BKN200 TN14/1921Z TX27/2006Z BECMG 1911/1912 33006KT BECMG 2003/2004 21006KT